Minerva Zenia — SYNB — position and weather

sailwx.info

Track history (hours):
 
Tides and Currents Weather Stations Pressure Air Temp Water Temp Dewpoint Dewpoint Depression Visibility Wind Speed Wind Dir Waves Ship Positions

Minerva Zenia

Last reported at 2017-Apr-24 09:19 UTC. Time now 2017-Apr-29 11:28 UTC.
Position N 40°59' E 028°60'.

Length 248 m; draft 8.5 m.

Type: Ship. MMSI: 240014000.

Date/timePositionNaut miles runAvg speedWind from/ knotsBaromVisibWave heightAir tempDewpointWater temp
2017-Apr-24 09:19N 40°59' E 028°60'3 7.7
2017-Apr-24 08:56N 40°56' E 028°59'4 8.2
2017-Apr-24 08:30N 40°53' E 028°56'4 7.5
2017-Apr-24 08:00N 40°50' E 028°56'3 5.9
2017-Apr-24 07:30N 40°47' E 028°58'1 0.4
2017-Apr-24 05:06N 40°47' E 028°57'0 0.2
2017-Apr-24 04:35N 40°47' E 028°57'0 0.2
2017-Apr-24 04:30N 40°47' E 028°57'0 0.2
2017-Apr-24 03:59N 40°47' E 028°57'0 0.2
2017-Apr-24 03:30N 40°48' E 028°57'0 0.2
2017-Apr-24 03:00N 40°48' E 028°57'0 0.1
2017-Apr-24 02:30N 40°48' E 028°57'0 0.2
2017-Apr-24 01:59N 40°48' E 028°57'0 0.4
2017-Apr-24 01:27N 40°48' E 028°58'0 0.5
2017-Apr-24 01:00N 40°48' E 028°58'0 0.5
2017-Apr-24 00:29N 40°48' E 028°58'0 0.3
2017-Apr-24 00:00N 40°48' E 028°58'1 1.5
2017-Apr-23 23:30N 40°47' E 028°58'0 0.7
2017-Apr-23 22:59N 40°47' E 028°58'0 0.7
2017-Apr-23 22:30N 40°48' E 028°58'0 0.6
2017-Apr-23 22:00N 40°48' E 028°58'0 0.2
2017-Apr-23 21:30N 40°48' E 028°58'1 1.8
2017-Apr-23 21:00N 40°48' E 028°57'0 0.7
2017-Apr-23 20:28N 40°49' E 028°57'0 0.4
2017-Apr-23 19:58N 40°49' E 028°56'0 0.4
2017-Apr-23 19:29N 40°49' E 028°56'0 0.4
2017-Apr-23 19:00N 40°49' E 028°56'0 0.6
2017-Apr-23 18:29N 40°49' E 028°56'264 5.8
2017-Apr-21 20:44N 37°56' E 024°39'311.7
2017-Apr-21 20:27N 37°52' E 024°38'611.7
2017-Apr-21 19:59N 37°47' E 024°36'611.6
2017-Apr-21 19:29N 37°41' E 024°35'1810.8
2017-Apr-21 17:47N 37°29' E 024°18'411.8
2017-Apr-21 17:27N 37°30' E 024°13'611.9
2017-Apr-21 16:56N 37°31' E 024°06'1111.7
2017-Apr-21 16:00N 37°34' E 023°52'611.8
2017-Apr-21 15:30N 37°36' E 023°45'612.2
2017-Apr-21 15:00N 37°42' E 023°41'612.2
2017-Apr-21 14:30N 37°47' E 023°38'7 6.5
2017-Apr-21 13:28N 37°51' E 023°31'0 0.2
2017-Apr-21 12:58N 37°51' E 023°31'0 0.1
2017-Apr-21 12:28N 37°51' E 023°31'0 0.0
2017-Apr-21 11:58N 37°51' E 023°31'0 0.0
2017-Apr-21 11:28N 37°51' E 023°31'0 0.1
2017-Apr-21 10:58N 37°51' E 023°31'0 0.0
2017-Apr-21 10:28N 37°51' E 023°31'0 0.0
2017-Apr-21 09:58N 37°51' E 023°31'0 0.0
2017-Apr-21 09:28N 37°51' E 023°31'0 0.0
2017-Apr-21 08:58N 37°51' E 023°31'0 0.0
2017-Apr-21 08:28N 37°51' E 023°31'0 0.0
2017-Apr-21 07:58N 37°51' E 023°31'0 0.1
2017-Apr-21 07:28N 37°51' E 023°31'0 0.0
2017-Apr-21 06:58N 37°51' E 023°31'0 0.0
2017-Apr-21 06:28N 37°51' E 023°32'0 0.0
2017-Apr-21 05:58N 37°51' E 023°32'0 0.1
2017-Apr-21 05:28N 37°51' E 023°32'0 0.0
2017-Apr-21 04:58N 37°51' E 023°32'0 0.0
2017-Apr-21 04:28N 37°51' E 023°32'0 0.1
2017-Apr-21 03:55N 37°51' E 023°32'0 0.1
2017-Apr-21 03:28N 37°51' E 023°32'0 0.0
2017-Apr-21 02:58N 37°51' E 023°32'0 0.0
2017-Apr-21 02:28N 37°51' E 023°32'0 0.0
2017-Apr-21 01:58N 37°51' E 023°32'0 0.0
2017-Apr-21 01:28N 37°51' E 023°32'0 0.1
2017-Apr-21 00:58N 37°51' E 023°32'0 0.1
2017-Apr-21 00:28N 37°51' E 023°32'0 0.0
2017-Apr-20 23:58N 37°51' E 023°32'0 0.0
2017-Apr-20 23:28N 37°51' E 023°32'0 0.0
2017-Apr-20 22:58N 37°51' E 023°32'0 0.0
2017-Apr-20 22:28N 37°51' E 023°32'0 0.0
2017-Apr-20 21:58N 37°51' E 023°32'0 0.1
2017-Apr-20 21:28N 37°51' E 023°32'0 0.0
2017-Apr-20 20:58N 37°51' E 023°32'0 0.0
2017-Apr-20 20:25N 37°51' E 023°32'0 0.0
2017-Apr-20 19:58N 37°51' E 023°32'0 0.0
2017-Apr-20 19:28N 37°51' E 023°32'0 0.0
2017-Apr-20 18:58N 37°51' E 023°32'0 0.0
2017-Apr-20 18:28N 37°51' E 023°32'0 0.0
2017-Apr-20 17:58N 37°51' E 023°32'0 0.0
2017-Apr-20 17:28N 37°51' E 023°32'0 0.2
2017-Apr-20 16:58N 37°51' E 023°32'0 0.0
2017-Apr-20 16:28N 37°51' E 023°32'0 0.1
2017-Apr-20 15:58N 37°51' E 023°32'0 0.1
2017-Apr-20 15:28N 37°51' E 023°32'0 0.2
2017-Apr-20 14:58N 37°51' E 023°32'0 0.0
2017-Apr-20 13:58N 37°51' E 023°32'0 0.0
2017-Apr-20 13:28N 37°51' E 023°32'0 0.0
2017-Apr-20 12:58N 37°51' E 023°32'0 0.1
2017-Apr-20 12:28N 37°51' E 023°32'0 0.1
2017-Apr-20 11:58N 37°51' E 023°32'0 0.1
2017-Apr-20 11:28N 37°51' E 023°32'0 0.0
2017-Apr-20 10:58N 37°51' E 023°32'0 0.0
2017-Apr-20 10:28N 37°51' E 023°32'0 0.1
2017-Apr-20 09:58N 37°51' E 023°32'0 0.2
2017-Apr-20 09:28N 37°51' E 023°32'0 0.0
2017-Apr-20 08:58N 37°51' E 023°32'0 0.1
2017-Apr-20 08:28N 37°51' E 023°32'0 0.0
2017-Apr-20 07:58N 37°51' E 023°32'0 0.0
2017-Apr-20 07:28N 37°51' E 023°32'0 0.4
2017-Apr-20 06:58N 37°51' E 023°31'0 0.1
2017-Apr-20 06:28N 37°51' E 023°31'0 0.1
2017-Apr-20 05:58N 37°51' E 023°31'0 0.2
2017-Apr-20 05:28N 37°51' E 023°31'0 0.2
2017-Apr-20 04:58N 37°51' E 023°31'0 0.1
2017-Apr-20 04:28N 37°51' E 023°31'0 0.0
2017-Apr-20 03:58N 37°51' E 023°31'0 0.0
2017-Apr-20 03:28N 37°51' E 023°31'0 0.1
2017-Apr-20 02:58N 37°51' E 023°31'0 0.1
2017-Apr-20 02:28N 37°51' E 023°31'0 0.0
2017-Apr-20 01:58N 37°51' E 023°31'0 0.1
2017-Apr-20 01:28N 37°51' E 023°31'0 0.0
2017-Apr-20 00:58N 37°51' E 023°31'0 0.2
2017-Apr-20 00:28N 37°51' E 023°31'0 0.0
2017-Apr-19 23:58N 37°51' E 023°31'0 0.0
2017-Apr-19 23:28N 37°51' E 023°31'0 0.1
2017-Apr-19 22:58N 37°51' E 023°31'0 0.1
2017-Apr-19 22:28N 37°51' E 023°31'0 0.1
2017-Apr-19 21:58N 37°51' E 023°31'0 0.0
2017-Apr-19 21:28N 37°51' E 023°31'0 0.1
2017-Apr-19 20:58N 37°51' E 023°31'0 0.3
2017-Apr-19 20:28N 37°51' E 023°31'0 0.1
2017-Apr-19 19:58N 37°51' E 023°31'0 0.0
2017-Apr-19 19:28N 37°51' E 023°31'0 0.1
2017-Apr-19 18:58N 37°51' E 023°31'0 0.1
2017-Apr-19 18:28N 37°51' E 023°31'0 0.1
2017-Apr-19 17:58N 37°51' E 023°31'0 0.0
2017-Apr-19 17:28N 37°51' E 023°31'0 0.0
2017-Apr-19 16:58N 37°51' E 023°31'0 0.0
2017-Apr-19 16:28N 37°51' E 023°31'0 0.0
2017-Apr-19 15:58N 37°51' E 023°31'0 0.0
2017-Apr-19 15:28N 37°51' E 023°31'0 0.0
2017-Apr-19 14:58N 37°51' E 023°31'0 0.0
2017-Apr-19 14:28N 37°51' E 023°31'0 0.0
2017-Apr-19 13:28N 37°51' E 023°31'0 0.1
2017-Apr-19 12:58N 37°51' E 023°31'0 0.1
2017-Apr-19 12:28N 37°51' E 023°31'0 0.0
2017-Apr-19 11:58N 37°51' E 023°31'0 0.1
2017-Apr-19 11:28N 37°51' E 023°31'0 0.0
2017-Apr-19 10:37N 37°51' E 023°31'0 0.0
2017-Apr-19 08:40N 37°51' E 023°31'0 0.1
2017-Apr-19 07:46N 37°51' E 023°31'0 0.1
2017-Apr-19 07:28N 37°51' E 023°31'0 0.0
2017-Apr-19 06:58N 37°51' E 023°31'0 0.0
2017-Apr-19 06:28N 37°51' E 023°31'0 0.0
2017-Apr-19 05:58N 37°51' E 023°31'0 0.0
2017-Apr-19 05:25N 37°51' E 023°31'0 0.0
2017-Apr-19 04:58N 37°51' E 023°31'0 0.0
2017-Apr-19 04:28N 37°51' E 023°31'0 0.1
2017-Apr-19 03:55N 37°51' E 023°31'0 0.1
2017-Apr-19 03:28N 37°51' E 023°31'0 0.0
2017-Apr-19 02:58N 37°51' E 023°31'0 0.0
2017-Apr-19 02:28N 37°51' E 023°31'0 0.0
2017-Apr-19 01:58N 37°51' E 023°31'0 0.0
2017-Apr-19 01:28N 37°51' E 023°31'0 0.0
2017-Apr-19 00:58N 37°51' E 023°31'0 0.0
2017-Apr-19 00:25N 37°51' E 023°31'0 0.0
2017-Apr-18 23:58N 37°51' E 023°31'0 0.1
2017-Apr-18 23:28N 37°51' E 023°31'0 0.0
2017-Apr-18 22:58N 37°51' E 023°31'0 0.0
2017-Apr-18 22:28N 37°51' E 023°31'0 0.0
2017-Apr-18 21:58N 37°51' E 023°31'0 0.0
2017-Apr-18 21:28N 37°51' E 023°31'0 0.0
2017-Apr-18 20:58N 37°51' E 023°31'0 0.0
2017-Apr-18 20:28N 37°51' E 023°31'0 0.0
2017-Apr-18 19:58N 37°51' E 023°31'0 0.0
2017-Apr-18 19:28N 37°51' E 023°31'0 0.1
2017-Apr-18 18:58N 37°51' E 023°31'0 0.0
2017-Apr-18 18:28N 37°51' E 023°31'0 0.0
2017-Apr-18 17:58N 37°51' E 023°31'0 0.0
2017-Apr-18 17:28N 37°51' E 023°31'0 0.0
2017-Apr-18 16:58N 37°51' E 023°31'0 0.0
2017-Apr-18 16:28N 37°51' E 023°31'0 0.0
2017-Apr-18 15:58N 37°51' E 023°31'0 0.0
2017-Apr-18 15:28N 37°51' E 023°31'0 0.0
2017-Apr-18 14:58N 37°51' E 023°31'0 0.0
2017-Apr-18 13:58N 37°51' E 023°31'0 0.0
2017-Apr-18 13:28N 37°51' E 023°31'0 0.1
2017-Apr-18 12:58N 37°51' E 023°31'0 0.0
2017-Apr-18 12:28N 37°51' E 023°31'0 0.0
2017-Apr-18 11:58N 37°51' E 023°31'0 0.1
2017-Apr-18 11:28N 37°51' E 023°31'0 0.3
2017-Apr-18 10:58N 37°51' E 023°31'0 0.2
2017-Apr-18 10:28N 37°51' E 023°32'0 0.1
2017-Apr-18 09:58N 37°51' E 023°32'0 0.1
2017-Apr-18 08:19N 37°51' E 023°32'0 0.1
2017-Apr-18 07:58N 37°51' E 023°32'0 0.0
2017-Apr-18 05:28N 37°51' E 023°32'0 0.1
2017-Apr-18 04:58N 37°51' E 023°32'0 0.1
2017-Apr-18 04:28N 37°51' E 023°32'0 0.0
2017-Apr-18 03:58N 37°51' E 023°32'0 0.1
2017-Apr-18 03:28N 37°51' E 023°32'0 0.1
2017-Apr-18 02:58N 37°51' E 023°32'0 0.2
2017-Apr-18 02:28N 37°51' E 023°32'0 0.1
2017-Apr-18 01:58N 37°51' E 023°32'0 0.0
2017-Apr-18 01:28N 37°51' E 023°32'0 0.1
2017-Apr-18 00:58N 37°51' E 023°32'0 0.1
2017-Apr-18 00:28N 37°51' E 023°32'0 0.1
2017-Apr-17 23:58N 37°51' E 023°32'0 0.2
2017-Apr-17 23:28N 37°51' E 023°31'0 0.2
2017-Apr-17 22:58N 37°51' E 023°31'0 0.1
2017-Apr-17 22:28N 37°51' E 023°31'0 0.0
2017-Apr-17 21:58N 37°51' E 023°31'0 0.1
2017-Apr-17 21:28N 37°51' E 023°31'0 0.0
2017-Apr-17 20:58N 37°51' E 023°31'0 0.0
2017-Apr-17 20:28N 37°51' E 023°31'0 0.0
2017-Apr-17 19:58N 37°51' E 023°31'0 0.1
2017-Apr-17 19:28N 37°51' E 023°31'0 0.0
2017-Apr-17 18:58N 37°51' E 023°31'0 0.1
2017-Apr-17 18:28N 37°51' E 023°31'0 0.1
2017-Apr-17 17:58N 37°51' E 023°31'0 0.1
2017-Apr-17 17:28N 37°51' E 023°31'0 0.2
2017-Apr-17 16:58N 37°51' E 023°31'0 0.1
2017-Apr-17 16:28N 37°51' E 023°32'0 0.0
2017-Apr-17 15:58N 37°51' E 023°32'0 0.0
2017-Apr-17 15:28N 37°51' E 023°32'0 0.1
2017-Apr-17 14:58N 37°51' E 023°32'0 0.4
2017-Apr-17 14:00N 37°51' E 023°32'0 0.2
2017-Apr-17 13:30N 37°51' E 023°32'0 0.7
2017-Apr-17 13:01N 37°51' E 023°32'0 0.4
2017-Apr-17 12:30N 37°51' E 023°32'0 0.1
2017-Apr-17 12:00N 37°51' E 023°32'0 0.1
2017-Apr-17 11:30N 37°51' E 023°32'0 0.0
2017-Apr-17 11:00N 37°51' E 023°32'0 0.1
2017-Apr-17 10:30N 37°51' E 023°32'0 0.1
2017-Apr-17 10:00N 37°51' E 023°32'0 0.0
2017-Apr-17 09:30N 37°51' E 023°32'0 0.0
2017-Apr-17 09:00N 37°51' E 023°32'0 0.1
2017-Apr-17 08:30N 37°51' E 023°32'0 0.1
2017-Apr-17 08:00N 37°51' E 023°32'0 0.0
2017-Apr-17 07:30N 37°51' E 023°32'0 0.0
2017-Apr-17 07:00N 37°51' E 023°32'0 0.0
2017-Apr-17 06:30N 37°51' E 023°32'0 0.0
2017-Apr-17 06:00N 37°51' E 023°32'0 0.0
2017-Apr-17 05:30N 37°51' E 023°32'0 0.1
2017-Apr-17 05:00N 37°51' E 023°32'0 0.1
2017-Apr-17 04:30N 37°51' E 023°32'0 0.1
2017-Apr-17 04:00N 37°51' E 023°32'0 0.0
2017-Apr-17 03:30N 37°51' E 023°32'0 0.1
2017-Apr-17 03:00N 37°51' E 023°32'0 0.1
2017-Apr-17 02:30N 37°51' E 023°32'0 0.1
2017-Apr-17 02:00N 37°51' E 023°32'0 0.0
2017-Apr-17 01:30N 37°51' E 023°32'0 0.0
2017-Apr-17 01:00N 37°51' E 023°32'0 0.0
2017-Apr-17 00:30N 37°51' E 023°32'0 0.1
2017-Apr-17 00:00N 37°51' E 023°32'0 0.0
2017-Apr-16 23:30N 37°51' E 023°32'0 0.0
2017-Apr-16 23:00N 37°51' E 023°32'0 0.1
2017-Apr-16 22:30N 37°51' E 023°32'0 0.1
2017-Apr-16 22:00N 37°51' E 023°32'0 0.0
2017-Apr-16 21:30N 37°51' E 023°32'0 0.0
2017-Apr-16 21:00N 37°51' E 023°32'0 0.0
2017-Apr-16 20:30N 37°51' E 023°32'0 0.0
2017-Apr-16 20:00N 37°51' E 023°32'0 0.0
2017-Apr-16 19:30N 37°51' E 023°32'0 0.0
2017-Apr-16 19:00N 37°51' E 023°32'0 0.0
2017-Apr-16 18:30N 37°51' E 023°32'0 0.0
2017-Apr-16 18:00N 37°51' E 023°32'0 0.0
2017-Apr-16 17:30N 37°51' E 023°32'0 0.2
2017-Apr-16 17:00N 37°51' E 023°32'0 0.2
2017-Apr-16 16:30N 37°51' E 023°32'0 0.0
2017-Apr-16 16:00N 37°51' E 023°32'0 0.0
2017-Apr-16 15:30N 37°51' E 023°32'0 0.1
2017-Apr-16 15:00N 37°51' E 023°32'0 0.0
2017-Apr-16 14:00N 37°51' E 023°32'0 0.0
2017-Apr-16 13:30N 37°51' E 023°32'0 0.0
2017-Apr-16 13:00N 37°51' E 023°32'0 0.0
2017-Apr-16 12:30N 37°51' E 023°32'0 0.0
2017-Apr-16 12:00N 37°51' E 023°32'0 0.0
2017-Apr-16 11:30N 37°51' E 023°32'0 0.0
2017-Apr-16 11:00N 37°51' E 023°32'0 0.0
2017-Apr-16 10:30N 37°51' E 023°32'0 0.0
2017-Apr-16 10:00N 37°51' E 023°32'0 0.0
2017-Apr-16 09:30N 37°51' E 023°32'0 0.0
2017-Apr-16 09:00N 37°51' E 023°32'0 0.0
2017-Apr-16 08:30N 37°51' E 023°32'0 0.1
2017-Apr-16 08:00N 37°51' E 023°32'0 0.1
2017-Apr-16 07:30N 37°51' E 023°32'0 0.1
2017-Apr-16 07:00N 37°51' E 023°32'0 0.0
2017-Apr-16 06:30N 37°51' E 023°32'0 0.0
2017-Apr-16 06:00N 37°51' E 023°32'0 0.0
2017-Apr-16 05:30N 37°51' E 023°32'0 0.0
2017-Apr-16 05:00N 37°51' E 023°32'0 0.0
2017-Apr-16 04:30N 37°51' E 023°32'0 0.1
2017-Apr-16 04:00N 37°51' E 023°32'0 0.1
2017-Apr-16 03:30N 37°51' E 023°32'0 0.0
2017-Apr-16 03:00N 37°51' E 023°32'0 0.0
2017-Apr-16 02:30N 37°51' E 023°32'0 0.1
2017-Apr-16 02:00N 37°51' E 023°32'0 0.1
2017-Apr-16 01:30N 37°51' E 023°32'0 0.0
2017-Apr-16 01:00N 37°51' E 023°32'0 0.1
2017-Apr-16 00:30N 37°51' E 023°32'0 0.0
2017-Apr-16 00:00N 37°51' E 023°32'0 0.3
2017-Apr-15 23:30N 37°51' E 023°32'0 0.2
2017-Apr-15 23:00N 37°51' E 023°32'0 0.0
2017-Apr-15 22:30N 37°51' E 023°32'0 0.0
2017-Apr-15 22:00N 37°51' E 023°32'0 0.1
2017-Apr-15 21:30N 37°51' E 023°32'0 0.0
2017-Apr-15 21:00N 37°51' E 023°32'0 0.1
2017-Apr-15 20:30N 37°51' E 023°32'0 0.0
2017-Apr-15 20:00N 37°51' E 023°32'0 0.1
2017-Apr-15 19:30N 37°51' E 023°32'0 0.1
2017-Apr-15 19:00N 37°51' E 023°32'0 0.0
2017-Apr-15 18:30N 37°51' E 023°32'0 0.0
2017-Apr-15 18:00N 37°51' E 023°32'0 0.0
2017-Apr-15 17:30N 37°51' E 023°32'0 0.0
2017-Apr-15 17:00N 37°51' E 023°32'0 0.1
2017-Apr-15 16:30N 37°51' E 023°32'0 0.0
2017-Apr-15 16:00N 37°51' E 023°32'0 0.1
2017-Apr-15 15:30N 37°51' E 023°32'0 0.0
2017-Apr-15 15:00N 37°51' E 023°32'0 0.0
2017-Apr-15 14:00N 37°51' E 023°32'0 0.3
2017-Apr-15 13:30N 37°51' E 023°32'1 1.9
2017-Apr-15 13:00N 37°51' E 023°33'3 5.9
2017-Apr-15 12:30N 37°51' E 023°37'510.5
2017-Apr-15 12:00N 37°47' E 023°41'713.2
2017-Apr-15 11:30N 37°41' E 023°45'713.4
2017-Apr-15 11:00N 37°35' E 023°47'713.6
2017-Apr-15 10:30N 37°28' E 023°47'713.7
2017-Apr-15 10:00N 37°21' E 023°47'713.4
2017-Apr-15 09:30N 37°14' E 023°47'713.3
2017-Apr-15 09:00N 37°08' E 023°44'613.1
2017-Apr-15 08:30N 37°02' E 023°40'713.3
2017-Apr-15 08:00N 36°56' E 023°36'  
Track history (hours):
 
Tides and Currents Weather Stations Pressure Air Temp Water Temp Dewpoint Dewpoint Depression Visibility Wind Speed Wind Dir Waves Ship Positions

Minerva Zenia

Last reported at 2017-Apr-24 09:19 UTC. Time now 2017-Apr-29 11:28 UTC.
Position N 40°59' E 028°60'.

Length 248 m; draft 8.5 m.

Type: Ship. MMSI: 240014000.

Date/timePositionNaut miles runAvg speedWind from/ knotsBaromVisibWave heightAir tempDewpointWater temp
2017-Apr-24 09:19N 40°59' E 028°60'3 7.7
2017-Apr-24 08:56N 40°56' E 028°59'4 8.2
2017-Apr-24 08:30N 40°53' E 028°56'4 7.5
2017-Apr-24 08:00N 40°50' E 028°56'3 5.9
2017-Apr-24 07:30N 40°47' E 028°58'1 0.4
2017-Apr-24 05:06N 40°47' E 028°57'0 0.2
2017-Apr-24 04:35N 40°47' E 028°57'0 0.2
2017-Apr-24 04:30N 40°47' E 028°57'0 0.2
2017-Apr-24 03:59N 40°47' E 028°57'0 0.2
2017-Apr-24 03:30N 40°48' E 028°57'0 0.2
2017-Apr-24 03:00N 40°48' E 028°57'0 0.1
2017-Apr-24 02:30N 40°48' E 028°57'0 0.2
2017-Apr-24 01:59N 40°48' E 028°57'0 0.4
2017-Apr-24 01:27N 40°48' E 028°58'0 0.5
2017-Apr-24 01:00N 40°48' E 028°58'0 0.5
2017-Apr-24 00:29N 40°48' E 028°58'0 0.3
2017-Apr-24 00:00N 40°48' E 028°58'1 1.5
2017-Apr-23 23:30N 40°47' E 028°58'0 0.7
2017-Apr-23 22:59N 40°47' E 028°58'0 0.7
2017-Apr-23 22:30N 40°48' E 028°58'0 0.6
2017-Apr-23 22:00N 40°48' E 028°58'0 0.2
2017-Apr-23 21:30N 40°48' E 028°58'1 1.8
2017-Apr-23 21:00N 40°48' E 028°57'0 0.7
2017-Apr-23 20:28N 40°49' E 028°57'0 0.4
2017-Apr-23 19:58N 40°49' E 028°56'0 0.4
2017-Apr-23 19:29N 40°49' E 028°56'0 0.4
2017-Apr-23 19:00N 40°49' E 028°56'0 0.6
2017-Apr-23 18:29N 40°49' E 028°56'264 5.8
2017-Apr-21 20:44N 37°56' E 024°39'311.7
2017-Apr-21 20:27N 37°52' E 024°38'611.7
2017-Apr-21 19:59N 37°47' E 024°36'611.6
2017-Apr-21 19:29N 37°41' E 024°35'1810.8
2017-Apr-21 17:47N 37°29' E 024°18'411.8
2017-Apr-21 17:27N 37°30' E 024°13'611.9
2017-Apr-21 16:56N 37°31' E 024°06'1111.7
2017-Apr-21 16:00N 37°34' E 023°52'611.8
2017-Apr-21 15:30N 37°36' E 023°45'612.2
2017-Apr-21 15:00N 37°42' E 023°41'612.2
2017-Apr-21 14:30N 37°47' E 023°38'7 6.5
2017-Apr-21 13:28N 37°51' E 023°31'0 0.2
2017-Apr-21 12:58N 37°51' E 023°31'0 0.1
2017-Apr-21 12:28N 37°51' E 023°31'0 0.0
2017-Apr-21 11:58N 37°51' E 023°31'0 0.0
2017-Apr-21 11:28N 37°51' E 023°31'0 0.1
2017-Apr-21 10:58N 37°51' E 023°31'0 0.0
2017-Apr-21 10:28N 37°51' E 023°31'0 0.0
2017-Apr-21 09:58N 37°51' E 023°31'0 0.0
2017-Apr-21 09:28N 37°51' E 023°31'0 0.0
2017-Apr-21 08:58N 37°51' E 023°31'0 0.0
2017-Apr-21 08:28N 37°51' E 023°31'0 0.0
2017-Apr-21 07:58N 37°51' E 023°31'0 0.1
2017-Apr-21 07:28N 37°51' E 023°31'0 0.0
2017-Apr-21 06:58N 37°51' E 023°31'0 0.0
2017-Apr-21 06:28N 37°51' E 023°32'0 0.0
2017-Apr-21 05:58N 37°51' E 023°32'0 0.1
2017-Apr-21 05:28N 37°51' E 023°32'0 0.0
2017-Apr-21 04:58N 37°51' E 023°32'0 0.0
2017-Apr-21 04:28N 37°51' E 023°32'0 0.1
2017-Apr-21 03:55N 37°51' E 023°32'0 0.1
2017-Apr-21 03:28N 37°51' E 023°32'0 0.0
2017-Apr-21 02:58N 37°51' E 023°32'0 0.0
2017-Apr-21 02:28N 37°51' E 023°32'0 0.0
2017-Apr-21 01:58N 37°51' E 023°32'0 0.0
2017-Apr-21 01:28N 37°51' E 023°32'0 0.1
2017-Apr-21 00:58N 37°51' E 023°32'0 0.1
2017-Apr-21 00:28N 37°51' E 023°32'0 0.0
2017-Apr-20 23:58N 37°51' E 023°32'0 0.0
2017-Apr-20 23:28N 37°51' E 023°32'0 0.0
2017-Apr-20 22:58N 37°51' E 023°32'0 0.0
2017-Apr-20 22:28N 37°51' E 023°32'0 0.0
2017-Apr-20 21:58N 37°51' E 023°32'0 0.1
2017-Apr-20 21:28N 37°51' E 023°32'0 0.0
2017-Apr-20 20:58N 37°51' E 023°32'0 0.0
2017-Apr-20 20:25N 37°51' E 023°32'0 0.0
2017-Apr-20 19:58N 37°51' E 023°32'0 0.0
2017-Apr-20 19:28N 37°51' E 023°32'0 0.0
2017-Apr-20 18:58N 37°51' E 023°32'0 0.0
2017-Apr-20 18:28N 37°51' E 023°32'0 0.0
2017-Apr-20 17:58N 37°51' E 023°32'0 0.0
2017-Apr-20 17:28N 37°51' E 023°32'0 0.2
2017-Apr-20 16:58N 37°51' E 023°32'0 0.0
2017-Apr-20 16:28N 37°51' E 023°32'0 0.1
2017-Apr-20 15:58N 37°51' E 023°32'0 0.1
2017-Apr-20 15:28N 37°51' E 023°32'0 0.2
2017-Apr-20 14:58N 37°51' E 023°32'0 0.0
2017-Apr-20 13:58N 37°51' E 023°32'0 0.0
2017-Apr-20 13:28N 37°51' E 023°32'0 0.0
2017-Apr-20 12:58N 37°51' E 023°32'0 0.1
2017-Apr-20 12:28N 37°51' E 023°32'0 0.1
2017-Apr-20 11:58N 37°51' E 023°32'0 0.1
2017-Apr-20 11:28N 37°51' E 023°32'0 0.0
2017-Apr-20 10:58N 37°51' E 023°32'0 0.0
2017-Apr-20 10:28N 37°51' E 023°32'0 0.1
2017-Apr-20 09:58N 37°51' E 023°32'0 0.2
2017-Apr-20 09:28N 37°51' E 023°32'0 0.0
2017-Apr-20 08:58N 37°51' E 023°32'0 0.1
2017-Apr-20 08:28N 37°51' E 023°32'0 0.0
2017-Apr-20 07:58N 37°51' E 023°32'0 0.0
2017-Apr-20 07:28N 37°51' E 023°32'0 0.4
2017-Apr-20 06:58N 37°51' E 023°31'0 0.1
2017-Apr-20 06:28N 37°51' E 023°31'0 0.1
2017-Apr-20 05:58N 37°51' E 023°31'0 0.2
2017-Apr-20 05:28N 37°51' E 023°31'0 0.2
2017-Apr-20 04:58N 37°51' E 023°31'0 0.1
2017-Apr-20 04:28N 37°51' E 023°31'0 0.0
2017-Apr-20 03:58N 37°51' E 023°31'0 0.0
2017-Apr-20 03:28N 37°51' E 023°31'0 0.1
2017-Apr-20 02:58N 37°51' E 023°31'0 0.1
2017-Apr-20 02:28N 37°51' E 023°31'0 0.0
2017-Apr-20 01:58N 37°51' E 023°31'0 0.1
2017-Apr-20 01:28N 37°51' E 023°31'0 0.0
2017-Apr-20 00:58N 37°51' E 023°31'0 0.2
2017-Apr-20 00:28N 37°51' E 023°31'0 0.0
2017-Apr-19 23:58N 37°51' E 023°31'0 0.0
2017-Apr-19 23:28N 37°51' E 023°31'0 0.1
2017-Apr-19 22:58N 37°51' E 023°31'0 0.1
2017-Apr-19 22:28N 37°51' E 023°31'0 0.1
2017-Apr-19 21:58N 37°51' E 023°31'0 0.0
2017-Apr-19 21:28N 37°51' E 023°31'0 0.1
2017-Apr-19 20:58N 37°51' E 023°31'0 0.3
2017-Apr-19 20:28N 37°51' E 023°31'0 0.1
2017-Apr-19 19:58N 37°51' E 023°31'0 0.0
2017-Apr-19 19:28N 37°51' E 023°31'0 0.1
2017-Apr-19 18:58N 37°51' E 023°31'0 0.1
2017-Apr-19 18:28N 37°51' E 023°31'0 0.1
2017-Apr-19 17:58N 37°51' E 023°31'0 0.0
2017-Apr-19 17:28N 37°51' E 023°31'0 0.0
2017-Apr-19 16:58N 37°51' E 023°31'0 0.0
2017-Apr-19 16:28N 37°51' E 023°31'0 0.0
2017-Apr-19 15:58N 37°51' E 023°31'0 0.0
2017-Apr-19 15:28N 37°51' E 023°31'0 0.0
2017-Apr-19 14:58N 37°51' E 023°31'0 0.0
2017-Apr-19 14:28N 37°51' E 023°31'0 0.0
2017-Apr-19 13:28N 37°51' E 023°31'0 0.1
2017-Apr-19 12:58N 37°51' E 023°31'0 0.1
2017-Apr-19 12:28N 37°51' E 023°31'0 0.0
2017-Apr-19 11:58N 37°51' E 023°31'0 0.1
2017-Apr-19 11:28N 37°51' E 023°31'0 0.0
2017-Apr-19 10:37N 37°51' E 023°31'0 0.0
2017-Apr-19 08:40N 37°51' E 023°31'0 0.1
2017-Apr-19 07:46N 37°51' E 023°31'0 0.1
2017-Apr-19 07:28N 37°51' E 023°31'0 0.0
2017-Apr-19 06:58N 37°51' E 023°31'0 0.0
2017-Apr-19 06:28N 37°51' E 023°31'0 0.0
2017-Apr-19 05:58N 37°51' E 023°31'0 0.0
2017-Apr-19 05:25N 37°51' E 023°31'0 0.0
2017-Apr-19 04:58N 37°51' E 023°31'0 0.0
2017-Apr-19 04:28N 37°51' E 023°31'0 0.1
2017-Apr-19 03:55N 37°51' E 023°31'0 0.1
2017-Apr-19 03:28N 37°51' E 023°31'0 0.0
2017-Apr-19 02:58N 37°51' E 023°31'0 0.0
2017-Apr-19 02:28N 37°51' E 023°31'0 0.0
2017-Apr-19 01:58N 37°51' E 023°31'0 0.0
2017-Apr-19 01:28N 37°51' E 023°31'0 0.0
2017-Apr-19 00:58N 37°51' E 023°31'0 0.0
2017-Apr-19 00:25N 37°51' E 023°31'0 0.0
2017-Apr-18 23:58N 37°51' E 023°31'0 0.1
2017-Apr-18 23:28N 37°51' E 023°31'0 0.0
2017-Apr-18 22:58N 37°51' E 023°31'0 0.0
2017-Apr-18 22:28N 37°51' E 023°31'0 0.0
2017-Apr-18 21:58N 37°51' E 023°31'0 0.0
2017-Apr-18 21:28N 37°51' E 023°31'0 0.0
2017-Apr-18 20:58N 37°51' E 023°31'0 0.0
2017-Apr-18 20:28N 37°51' E 023°31'0 0.0
2017-Apr-18 19:58N 37°51' E 023°31'0 0.0
2017-Apr-18 19:28N 37°51' E 023°31'0 0.1
2017-Apr-18 18:58N 37°51' E 023°31'0 0.0
2017-Apr-18 18:28N 37°51' E 023°31'0 0.0
2017-Apr-18 17:58N 37°51' E 023°31'0 0.0
2017-Apr-18 17:28N 37°51' E 023°31'0 0.0
2017-Apr-18 16:58N 37°51' E 023°31'0 0.0
2017-Apr-18 16:28N 37°51' E 023°31'0 0.0
2017-Apr-18 15:58N 37°51' E 023°31'0 0.0
2017-Apr-18 15:28N 37°51' E 023°31'0 0.0
2017-Apr-18 14:58N 37°51' E 023°31'0 0.0
2017-Apr-18 13:58N 37°51' E 023°31'0 0.0
2017-Apr-18 13:28N 37°51' E 023°31'0 0.1
2017-Apr-18 12:58N 37°51' E 023°31'0 0.0
2017-Apr-18 12:28N 37°51' E 023°31'0 0.0
2017-Apr-18 11:58N 37°51' E 023°31'0 0.1
2017-Apr-18 11:28N 37°51' E 023°31'0 0.3
2017-Apr-18 10:58N 37°51' E 023°31'0 0.2
2017-Apr-18 10:28N 37°51' E 023°32'0 0.1
2017-Apr-18 09:58N 37°51' E 023°32'0 0.1
2017-Apr-18 08:19N 37°51' E 023°32'0 0.1
2017-Apr-18 07:58N 37°51' E 023°32'0 0.0
2017-Apr-18 05:28N 37°51' E 023°32'0 0.1
2017-Apr-18 04:58N 37°51' E 023°32'0 0.1
2017-Apr-18 04:28N 37°51' E 023°32'0 0.0
2017-Apr-18 03:58N 37°51' E 023°32'0 0.1
2017-Apr-18 03:28N 37°51' E 023°32'0 0.1
2017-Apr-18 02:58N 37°51' E 023°32'0 0.2
2017-Apr-18 02:28N 37°51' E 023°32'0 0.1
2017-Apr-18 01:58N 37°51' E 023°32'0 0.0
2017-Apr-18 01:28N 37°51' E 023°32'0 0.1
2017-Apr-18 00:58N 37°51' E 023°32'0 0.1
2017-Apr-18 00:28N 37°51' E 023°32'0 0.1
2017-Apr-17 23:58N 37°51' E 023°32'0 0.2
2017-Apr-17 23:28N 37°51' E 023°31'0 0.2
2017-Apr-17 22:58N 37°51' E 023°31'0 0.1
2017-Apr-17 22:28N 37°51' E 023°31'0 0.0
2017-Apr-17 21:58N 37°51' E 023°31'0 0.1
2017-Apr-17 21:28N 37°51' E 023°31'0 0.0
2017-Apr-17 20:58N 37°51' E 023°31'0 0.0
2017-Apr-17 20:28N 37°51' E 023°31'0 0.0
2017-Apr-17 19:58N 37°51' E 023°31'0 0.1
2017-Apr-17 19:28N 37°51' E 023°31'0 0.0
2017-Apr-17 18:58N 37°51' E 023°31'0 0.1
2017-Apr-17 18:28N 37°51' E 023°31'0 0.1
2017-Apr-17 17:58N 37°51' E 023°31'0 0.1
2017-Apr-17 17:28N 37°51' E 023°31'0 0.2
2017-Apr-17 16:58N 37°51' E 023°31'0 0.1
2017-Apr-17 16:28N 37°51' E 023°32'0 0.0
2017-Apr-17 15:58N 37°51' E 023°32'0 0.0
2017-Apr-17 15:28N 37°51' E 023°32'0 0.1
2017-Apr-17 14:58N 37°51' E 023°32'0 0.4
2017-Apr-17 14:00N 37°51' E 023°32'0 0.2
2017-Apr-17 13:30N 37°51' E 023°32'0 0.7
2017-Apr-17 13:01N 37°51' E 023°32'0 0.4
2017-Apr-17 12:30N 37°51' E 023°32'0 0.1
2017-Apr-17 12:00N 37°51' E 023°32'0 0.1
2017-Apr-17 11:30N 37°51' E 023°32'0 0.0
2017-Apr-17 11:00N 37°51' E 023°32'0 0.1
2017-Apr-17 10:30N 37°51' E 023°32'0 0.1
2017-Apr-17 10:00N 37°51' E 023°32'0 0.0
2017-Apr-17 09:30N 37°51' E 023°32'0 0.0
2017-Apr-17 09:00N 37°51' E 023°32'0 0.1
2017-Apr-17 08:30N 37°51' E 023°32'0 0.1
2017-Apr-17 08:00N 37°51' E 023°32'0 0.0
2017-Apr-17 07:30N 37°51' E 023°32'0 0.0
2017-Apr-17 07:00N 37°51' E 023°32'0 0.0
2017-Apr-17 06:30N 37°51' E 023°32'0 0.0
2017-Apr-17 06:00N 37°51' E 023°32'0 0.0
2017-Apr-17 05:30N 37°51' E 023°32'0 0.1
2017-Apr-17 05:00N 37°51' E 023°32'0 0.1
2017-Apr-17 04:30N 37°51' E 023°32'0 0.1
2017-Apr-17 04:00N 37°51' E 023°32'0 0.0
2017-Apr-17 03:30N 37°51' E 023°32'0 0.1
2017-Apr-17 03:00N 37°51' E 023°32'0 0.1
2017-Apr-17 02:30N 37°51' E 023°32'0 0.1
2017-Apr-17 02:00N 37°51' E 023°32'0 0.0
2017-Apr-17 01:30N 37°51' E 023°32'0 0.0
2017-Apr-17 01:00N 37°51' E 023°32'0 0.0
2017-Apr-17 00:30N 37°51' E 023°32'0 0.1
2017-Apr-17 00:00N 37°51' E 023°32'0 0.0
2017-Apr-16 23:30N 37°51' E 023°32'0 0.0
2017-Apr-16 23:00N 37°51' E 023°32'0 0.1
2017-Apr-16 22:30N 37°51' E 023°32'0 0.1
2017-Apr-16 22:00N 37°51' E 023°32'0 0.0
2017-Apr-16 21:30N 37°51' E 023°32'0 0.0
2017-Apr-16 21:00N 37°51' E 023°32'0 0.0
2017-Apr-16 20:30N 37°51' E 023°32'0 0.0
2017-Apr-16 20:00N 37°51' E 023°32'0 0.0
2017-Apr-16 19:30N 37°51' E 023°32'0 0.0
2017-Apr-16 19:00N 37°51' E 023°32'0 0.0
2017-Apr-16 18:30N 37°51' E 023°32'0 0.0
2017-Apr-16 18:00N 37°51' E 023°32'0 0.0
2017-Apr-16 17:30N 37°51' E 023°32'0 0.2
2017-Apr-16 17:00N 37°51' E 023°32'0 0.2
2017-Apr-16 16:30N 37°51' E 023°32'0 0.0
2017-Apr-16 16:00N 37°51' E 023°32'0 0.0
2017-Apr-16 15:30N 37°51' E 023°32'0 0.1
2017-Apr-16 15:00N 37°51' E 023°32'0 0.0
2017-Apr-16 14:00N 37°51' E 023°32'0 0.0
2017-Apr-16 13:30N 37°51' E 023°32'0 0.0
2017-Apr-16 13:00N 37°51' E 023°32'0 0.0
2017-Apr-16 12:30N 37°51' E 023°32'0 0.0
2017-Apr-16 12:00N 37°51' E 023°32'0 0.0
2017-Apr-16 11:30N 37°51' E 023°32'0 0.0
2017-Apr-16 11:00N 37°51' E 023°32'0 0.0
2017-Apr-16 10:30N 37°51' E 023°32'0 0.0
2017-Apr-16 10:00N 37°51' E 023°32'0 0.0
2017-Apr-16 09:30N 37°51' E 023°32'0 0.0
2017-Apr-16 09:00N 37°51' E 023°32'0 0.0
2017-Apr-16 08:30N 37°51' E 023°32'0 0.1
2017-Apr-16 08:00N 37°51' E 023°32'0 0.1
2017-Apr-16 07:30N 37°51' E 023°32'0 0.1
2017-Apr-16 07:00N 37°51' E 023°32'0 0.0
2017-Apr-16 06:30N 37°51' E 023°32'0 0.0
2017-Apr-16 06:00N 37°51' E 023°32'0 0.0
2017-Apr-16 05:30N 37°51' E 023°32'0 0.0
2017-Apr-16 05:00N 37°51' E 023°32'0 0.0
2017-Apr-16 04:30N 37°51' E 023°32'0 0.1
2017-Apr-16 04:00N 37°51' E 023°32'0 0.1
2017-Apr-16 03:30N 37°51' E 023°32'0 0.0
2017-Apr-16 03:00N 37°51' E 023°32'0 0.0
2017-Apr-16 02:30N 37°51' E 023°32'0 0.1
2017-Apr-16 02:00N 37°51' E 023°32'0 0.1
2017-Apr-16 01:30N 37°51' E 023°32'0 0.0
2017-Apr-16 01:00N 37°51' E 023°32'0 0.1
2017-Apr-16 00:30N 37°51' E 023°32'0 0.0
2017-Apr-16 00:00N 37°51' E 023°32'0 0.3
2017-Apr-15 23:30N 37°51' E 023°32'0 0.2
2017-Apr-15 23:00N 37°51' E 023°32'0 0.0
2017-Apr-15 22:30N 37°51' E 023°32'0 0.0
2017-Apr-15 22:00N 37°51' E 023°32'0 0.1
2017-Apr-15 21:30N 37°51' E 023°32'0 0.0
2017-Apr-15 21:00N 37°51' E 023°32'0 0.1
2017-Apr-15 20:30N 37°51' E 023°32'0 0.0
2017-Apr-15 20:00N 37°51' E 023°32'0 0.1
2017-Apr-15 19:30N 37°51' E 023°32'0 0.1
2017-Apr-15 19:00N 37°51' E 023°32'0 0.0
2017-Apr-15 18:30N 37°51' E 023°32'0 0.0
2017-Apr-15 18:00N 37°51' E 023°32'0 0.0
2017-Apr-15 17:30N 37°51' E 023°32'0 0.0
2017-Apr-15 17:00N 37°51' E 023°32'0 0.1
2017-Apr-15 16:30N 37°51' E 023°32'0 0.0
2017-Apr-15 16:00N 37°51' E 023°32'0 0.1
2017-Apr-15 15:30N 37°51' E 023°32'0 0.0
2017-Apr-15 15:00N 37°51' E 023°32'0 0.0
2017-Apr-15 14:00N 37°51' E 023°32'0 0.3
2017-Apr-15 13:30N 37°51' E 023°32'1 1.9
2017-Apr-15 13:00N 37°51' E 023°33'3 5.9
2017-Apr-15 12:30N 37°51' E 023°37'510.5
2017-Apr-15 12:00N 37°47' E 023°41'713.2
2017-Apr-15 11:30N 37°41' E 023°45'713.4
2017-Apr-15 11:00N 37°35' E 023°47'713.6
2017-Apr-15 10:30N 37°28' E 023°47'713.7
2017-Apr-15 10:00N 37°21' E 023°47'713.4
2017-Apr-15 09:30N 37°14' E 023°47'713.3
2017-Apr-15 09:00N 37°08' E 023°44'613.1
2017-Apr-15 08:30N 37°02' E 023°40'713.3
2017-Apr-15 08:00N 36°56' E 023°36'  

Dump ship's entire track history